sensor_id;sensor_type;location;lat;lon;timestamp;pressure;altitude;pressure_sealevel;temperature
79756;BMP280;69239;50.678;12.280;2023-08-08T00:01:40;97466.19;;;11.83
79756;BMP280;69239;50.678;12.280;2023-08-08T00:04:09;97452.25;;;11.74
79756;BMP280;69239;50.678;12.280;2023-08-08T00:06:35;97454.69;;;11.79
79756;BMP280;69239;50.678;12.280;2023-08-08T00:09:00;97450.38;;;11.75
79756;BMP280;69239;50.678;12.280;2023-08-08T00:11:26;97452.44;;;11.69
79756;BMP280;69239;50.678;12.280;2023-08-08T00:13:51;97460.16;;;11.74
79756;BMP280;69239;50.678;12.280;2023-08-08T00:16:16;97451.19;;;11.67
79756;BMP280;69239;50.678;12.280;2023-08-08T00:18:42;97455.84;;;11.70
79756;BMP280;69239;50.678;12.280;2023-08-08T00:21:07;97441.44;;;11.58
79756;BMP280;69239;50.678;12.280;2023-08-08T00:23:32;97470.41;;;11.67
79756;BMP280;69239;50.678;12.280;2023-08-08T00:25:58;97473.38;;;11.66
79756;BMP280;69239;50.678;12.280;2023-08-08T00:28:23;97464.72;;;11.56
79756;BMP280;69239;50.678;12.280;2023-08-08T00:30:48;97464.59;;;11.62
79756;BMP280;69239;50.678;12.280;2023-08-08T00:33:14;97463.22;;;11.55
79756;BMP280;69239;50.678;12.280;2023-08-08T00:35:39;97463.22;;;11.55
79756;BMP280;69239;50.678;12.280;2023-08-08T00:38:05;97458.72;;;11.56
79756;BMP280;69239;50.678;12.280;2023-08-08T00:40:30;97455.91;;;11.52
79756;BMP280;69239;50.678;12.280;2023-08-08T00:42:55;97468.47;;;11.55
79756;BMP280;69239;50.678;12.280;2023-08-08T00:45:21;97459.03;;;11.54
79756;BMP280;69239;50.678;12.280;2023-08-08T00:47:46;97453.91;;;11.49
79756;BMP280;69239;50.678;12.280;2023-08-08T00:50:12;97452.38;;;11.48
79756;BMP280;69239;50.678;12.280;2023-08-08T00:52:38;97461.38;;;11.47
79756;BMP280;69239;50.678;12.280;2023-08-08T00:55:05;97463.53;;;11.45
79756;BMP280;69239;50.678;12.280;2023-08-08T00:57:30;97457.34;;;11.41
79756;BMP280;69239;50.678;12.280;2023-08-08T00:59:56;97437.50;;;11.35
79756;BMP280;69239;50.678;12.280;2023-08-08T01:02:21;97453.94;;;11.41
79756;BMP280;69239;50.678;12.280;2023-08-08T01:04:47;97458.59;;;11.35
79756;BMP280;69239;50.678;12.280;2023-08-08T01:07:40;97458.59;;;11.35
79756;BMP280;69239;50.678;12.280;2023-08-08T01:10:10;97450.69;;;11.35
79756;BMP280;69239;50.678;12.280;2023-08-08T01:12:40;97461.69;;;11.37
79756;BMP280;69239;50.678;12.280;2023-08-08T01:15:07;97452.53;;;11.35
79756;BMP280;69239;50.678;12.280;2023-08-08T01:17:35;97460.78;;;11.33
79756;BMP280;69239;50.678;12.280;2023-08-08T01:20:03;97453.34;;;11.26
79756;BMP280;69239;50.678;12.280;2023-08-08T01:22:35;97463.56;;;11.28
79756;BMP280;69239;50.678;12.280;2023-08-08T01:25:01;97462.03;;;11.27
79756;BMP280;69239;50.678;12.280;2023-08-08T01:27:27;97450.41;;;11.19
79756;BMP280;69239;50.678;12.280;2023-08-08T01:29:52;97448.56;;;11.20
79756;BMP280;69239;50.678;12.280;2023-08-08T01:32:18;97453.19;;;11.23
79756;BMP280;69239;50.678;12.280;2023-08-08T01:34:43;97449.78;;;11.22
79756;BMP280;69239;50.678;12.280;2023-08-08T01:37:23;97433.06;;;11.10
79756;BMP280;69239;50.678;12.280;2023-08-08T01:39:50;97446.97;;;11.19
79756;BMP280;69239;50.678;12.280;2023-08-08T01:42:18;97426.25;;;11.09
79756;BMP280;69239;50.678;12.280;2023-08-08T01:44:43;97440.03;;;11.14
79756;BMP280;69239;50.678;12.280;2023-08-08T01:47:09;97444.84;;;11.12
79756;BMP280;69239;50.678;12.280;2023-08-08T01:49:34;97425.19;;;11.01
79756;BMP280;69239;50.678;12.280;2023-08-08T01:52:00;97436.13;;;11.12
79756;BMP280;69239;50.678;12.280;2023-08-08T01:54:25;97429.38;;;11.02
79756;BMP280;69239;50.678;12.280;2023-08-08T01:56:51;97435.84;;;11.05
79756;BMP280;69239;50.678;12.280;2023-08-08T01:59:16;97430.78;;;11.00
79756;BMP280;69239;50.678;12.280;2023-08-08T02:01:41;97432.16;;;10.97
79756;BMP280;69239;50.678;12.280;2023-08-08T02:04:07;97432.47;;;10.95
79756;BMP280;69239;50.678;12.280;2023-08-08T02:06:32;97423.47;;;10.88
79756;BMP280;69239;50.678;12.280;2023-08-08T02:08:57;97439.94;;;10.93
79756;BMP280;69239;50.678;12.280;2023-08-08T02:11:23;97439.75;;;10.99
79756;BMP280;69239;50.678;12.280;2023-08-08T02:13:48;97439.00;;;10.98
79756;BMP280;69239;50.678;12.280;2023-08-08T02:16:14;97438.19;;;10.98
79756;BMP280;69239;50.678;12.280;2023-08-08T02:18:39;97441.31;;;11.00
79756;BMP280;69239;50.678;12.280;2023-08-08T02:21:07;97435.28;;;10.99
79756;BMP280;69239;50.678;12.280;2023-08-08T02:23:33;97429.06;;;10.95
79756;BMP280;69239;50.678;12.280;2023-08-08T02:25:58;97445.19;;;11.02
79756;BMP280;69239;50.678;12.280;2023-08-08T02:28:23;97435.28;;;10.99
79756;BMP280;69239;50.678;12.280;2023-08-08T02:30:49;97439.13;;;11.02
79756;BMP280;69239;50.678;12.280;2023-08-08T02:33:14;97445.19;;;11.02
79756;BMP280;69239;50.678;12.280;2023-08-08T02:35:40;97412.03;;;10.92
79756;BMP280;69239;50.678;12.280;2023-08-08T02:38:05;97425.97;;;11.02
79756;BMP280;69239;50.678;12.280;2023-08-08T02:40:33;97432.44;;;11.04
79756;BMP280;69239;50.678;12.280;2023-08-08T02:42:59;97427.06;;;11.01
79756;BMP280;69239;50.678;12.280;2023-08-08T02:45:24;97436.94;;;11.04
79756;BMP280;69239;50.678;12.280;2023-08-08T02:47:50;97430.56;;;11.05
79756;BMP280;69239;50.678;12.280;2023-08-08T02:50:15;97432.44;;;11.04
79756;BMP280;69239;50.678;12.280;2023-08-08T02:52:40;97429.22;;;10.99
79756;BMP280;69239;50.678;12.280;2023-08-08T02:55:07;97430.13;;;11.03
79756;BMP280;69239;50.678;12.280;2023-08-08T02:57:32;97426.59;;;10.99
79756;BMP280;69239;50.678;12.280;2023-08-08T02:59:57;97427.06;;;11.01
79756;BMP280;69239;50.678;12.280;2023-08-08T03:02:23;97401.34;;;10.80
79756;BMP280;69239;50.678;12.280;2023-08-08T03:04:49;97423.03;;;10.94
79756;BMP280;69239;50.678;12.280;2023-08-08T03:07:14;97427.06;;;11.01
79756;BMP280;69239;50.678;12.280;2023-08-08T03:09:40;97425.50;;;11.00
79756;BMP280;69239;50.678;12.280;2023-08-08T03:12:05;97422.22;;;11.03
79756;BMP280;69239;50.678;12.280;2023-08-08T03:14:31;97401.97;;;10.94
79756;BMP280;69239;50.678;12.280;2023-08-08T03:16:56;97414.78;;;11.05
79756;BMP280;69239;50.678;12.280;2023-08-08T03:19:22;97417.41;;;11.05
79756;BMP280;69239;50.678;12.280;2023-08-08T03:21:47;97404.25;;;10.96
79756;BMP280;69239;50.678;12.280;2023-08-08T03:24:12;97405.97;;;11.01
79756;BMP280;69239;50.678;12.280;2023-08-08T03:26:38;97410.47;;;11.00
79756;BMP280;69239;50.678;12.280;2023-08-08T03:29:03;97412.34;;;11.00
79756;BMP280;69239;50.678;12.280;2023-08-08T03:31:28;97420.03;;;11.05
79756;BMP280;69239;50.678;12.280;2023-08-08T03:33:54;97416.50;;;11.01
79756;BMP280;69239;50.678;12.280;2023-08-08T03:36:19;97411.38;;;11.04
79756;BMP280;69239;50.678;12.280;2023-08-08T03:38:45;97410.59;;;11.04
79756;BMP280;69239;50.678;12.280;2023-08-08T03:41:12;97416.22;;;11.02
79756;BMP280;69239;50.678;12.280;2023-08-08T03:43:38;97414.63;;;11.10
79756;BMP280;69239;50.678;12.280;2023-08-08T03:46:03;97400.53;;;11.06
79756;BMP280;69239;50.678;12.280;2023-08-08T03:48:29;97403.31;;;11.09
79756;BMP280;69239;50.678;12.280;2023-08-08T03:50:54;97408.13;;;11.16
79756;BMP280;69239;50.678;12.280;2023-08-08T03:53:19;97395.41;;;11.09
79756;BMP280;69239;50.678;12.280;2023-08-08T03:55:45;97416.63;;;11.21
79756;BMP280;69239;50.678;12.280;2023-08-08T03:58:10;97415.22;;;11.24
79756;BMP280;69239;50.678;12.280;2023-08-08T04:00:36;97413.81;;;11.26
79756;BMP280;69239;50.678;12.280;2023-08-08T04:03:02;97410.09;;;11.27
79756;BMP280;69239;50.678;12.280;2023-08-08T04:05:28;97405.59;;;11.28
79756;BMP280;69239;50.678;12.280;2023-08-08T04:07:53;97408.09;;;11.33
79756;BMP280;69239;50.678;12.280;2023-08-08T04:10:19;97409.59;;;11.34
79756;BMP280;69239;50.678;12.280;2023-08-08T04:12:44;97416.41;;;11.35
79756;BMP280;69239;50.678;12.280;2023-08-08T04:15:09;97410.22;;;11.31
79756;BMP280;69239;50.678;12.280;2023-08-08T04:17:35;97411.16;;;11.35
79756;BMP280;69239;50.678;12.280;2023-08-08T04:20:00;97415.78;;;11.38
79756;BMP280;69239;50.678;12.280;2023-08-08T04:22:26;97420.56;;;11.45
79756;BMP280;69239;50.678;12.280;2023-08-08T04:24:51;97416.06;;;11.45
79756;BMP280;69239;50.678;12.280;2023-08-08T04:27:16;97423.81;;;11.50
79756;BMP280;69239;50.678;12.280;2023-08-08T04:29:42;97413.25;;;11.50
79756;BMP280;69239;50.678;12.280;2023-08-08T04:32:07;97416.19;;;11.57
79756;BMP280;69239;50.678;12.280;2023-08-08T04:34:33;97407.19;;;11.58
79756;BMP280;69239;50.678;12.280;2023-08-08T04:36:58;97407.00;;;11.64
79756;BMP280;69239;50.678;12.280;2023-08-08T04:39:23;97414.28;;;11.67
79756;BMP280;69239;50.678;12.280;2023-08-08T04:41:49;97411.63;;;11.67
79756;BMP280;69239;50.678;12.280;2023-08-08T04:44:14;97418.72;;;11.75
79756;BMP280;69239;50.678;12.280;2023-08-08T04:46:39;97410.81;;;11.75
79756;BMP280;69239;50.678;12.280;2023-08-08T04:49:05;97401.19;;;11.79
79756;BMP280;69239;50.678;12.280;2023-08-08T04:51:30;97397.91;;;11.82
79756;BMP280;69239;50.678;12.280;2023-08-08T04:53:56;97413.41;;;11.92
79756;BMP280;69239;50.678;12.280;2023-08-08T04:56:21;97400.00;;;11.97
79756;BMP280;69239;50.678;12.280;2023-08-08T04:58:46;97391.00;;;11.98
79756;BMP280;69239;50.678;12.280;2023-08-08T05:01:12;97385.84;;;12.02
79756;BMP280;69239;50.678;12.280;2023-08-08T05:03:40;97402.88;;;12.13
79756;BMP280;69239;50.678;12.280;2023-08-08T05:06:05;97396.13;;;12.15
79756;BMP280;69239;50.678;12.280;2023-08-08T05:08:30;97390.84;;;12.15
79756;BMP280;69239;50.678;12.280;2023-08-08T05:10:56;97397.34;;;12.27
79756;BMP280;69239;50.678;12.280;2023-08-08T05:13:21;97399.78;;;12.32
79756;BMP280;69239;50.678;12.280;2023-08-08T05:15:46;97407.06;;;12.35
79756;BMP280;69239;50.678;12.280;2023-08-08T05:18:12;97396.50;;;12.35
79756;BMP280;69239;50.678;12.280;2023-08-08T05:20:37;97398.34;;;12.34
79756;BMP280;69239;50.678;12.280;2023-08-08T05:23:02;97394.88;;;12.42
79756;BMP280;69239;50.678;12.280;2023-08-08T05:25:28;97403.38;;;12.48
79756;BMP280;69239;50.678;12.280;2023-08-08T05:27:53;97381.56;;;12.39
79756;BMP280;69239;50.678;12.280;2023-08-08T05:30:19;97400.53;;;12.53
79756;BMP280;69239;50.678;12.280;2023-08-08T05:32:44;97403.63;;;12.55
79756;BMP280;69239;50.678;12.280;2023-08-08T05:35:10;97392.91;;;12.51
79756;BMP280;69239;50.678;12.280;2023-08-08T05:37:35;97387.34;;;12.53
79756;BMP280;69239;50.678;12.280;2023-08-08T05:40:00;97395.03;;;12.58
79756;BMP280;69239;50.678;12.280;2023-08-08T05:42:26;97404.28;;;12.64
79756;BMP280;69239;50.678;12.280;2023-08-08T05:44:51;97410.94;;;12.70
79756;BMP280;69239;50.678;12.280;2023-08-08T05:47:16;97399.63;;;12.70
79756;BMP280;69239;50.678;12.280;2023-08-08T05:49:42;97401.28;;;12.74
79756;BMP280;69239;50.678;12.280;2023-08-08T05:52:08;97392.47;;;12.70
79756;BMP280;69239;50.678;12.280;2023-08-08T05:54:33;97388.28;;;12.69
79756;BMP280;69239;50.678;12.280;2023-08-08T05:56:58;97396.53;;;12.80
79756;BMP280;69239;50.678;12.280;2023-08-08T05:59:24;97396.88;;;12.78
79756;BMP280;69239;50.678;12.280;2023-08-08T06:01:49;97397.53;;;12.75
79756;BMP280;69239;50.678;12.280;2023-08-08T06:04:15;97408.34;;;12.82
79756;BMP280;69239;50.678;12.280;2023-08-08T06:06:40;97401.03;;;12.79
79756;BMP280;69239;50.678;12.280;2023-08-08T06:09:06;97407.44;;;12.78
79756;BMP280;69239;50.678;12.280;2023-08-08T06:11:34;97412.19;;;12.85
79756;BMP280;69239;50.678;12.280;2023-08-08T06:13:59;97400.19;;;12.75
79756;BMP280;69239;50.678;12.280;2023-08-08T06:16:24;97405.38;;;12.84
79756;BMP280;69239;50.678;12.280;2023-08-08T06:18:51;97420.72;;;12.91
79756;BMP280;69239;50.678;12.280;2023-08-08T06:21:16;97410.00;;;12.87
79756;BMP280;69239;50.678;12.280;2023-08-08T06:23:42;97422.22;;;12.92
79756;BMP280;69239;50.678;12.280;2023-08-08T06:26:07;97416.03;;;12.87
79756;BMP280;69239;50.678;12.280;2023-08-08T06:28:32;97407.34;;;12.87
79756;BMP280;69239;50.678;12.280;2023-08-08T06:30:58;97427.75;;;12.99
79756;BMP280;69239;50.678;12.280;2023-08-08T06:33:24;97430.84;;;13.01
79756;BMP280;69239;50.678;12.280;2023-08-08T06:35:49;97421.84;;;13.02
79756;BMP280;69239;50.678;12.280;2023-08-08T06:38:15;97420.59;;;12.99
79756;BMP280;69239;50.678;12.280;2023-08-08T06:40:40;97425.50;;;13.09
79756;BMP280;69239;50.678;12.280;2023-08-08T06:43:05;97425.16;;;13.11
79756;BMP280;69239;50.678;12.280;2023-08-08T06:45:31;97427.59;;;13.16
79756;BMP280;69239;50.678;12.280;2023-08-08T06:47:56;97419.19;;;13.14
79756;BMP280;69239;50.678;12.280;2023-08-08T06:50:22;97430.00;;;13.21
79756;BMP280;69239;50.678;12.280;2023-08-08T06:52:49;97426.16;;;13.18
79756;BMP280;69239;50.678;12.280;2023-08-08T06:55:14;97414.69;;;13.14
79756;BMP280;69239;50.678;12.280;2023-08-08T06:57:40;97424.06;;;13.24
79756;BMP280;69239;50.678;12.280;2023-08-08T07:00:06;97428.69;;;13.27
79756;BMP280;69239;50.678;12.280;2023-08-08T07:02:31;97431.78;;;13.29
79756;BMP280;69239;50.678;12.280;2023-08-08T07:04:57;97428.81;;;13.31
79756;BMP280;69239;50.678;12.280;2023-08-08T07:07:22;97430.47;;;13.35
79756;BMP280;69239;50.678;12.280;2023-08-08T07:09:48;97420.56;;;13.32
79756;BMP280;69239;50.678;12.280;2023-08-08T07:12:14;97419.69;;;13.40
79756;BMP280;69239;50.678;12.280;2023-08-08T07:14:39;97412.97;;;13.43
79756;BMP280;69239;50.678;12.280;2023-08-08T07:17:04;97411.22;;;13.47
79756;BMP280;69239;50.678;12.280;2023-08-08T07:19:30;97407.47;;;13.48
79756;BMP280;69239;50.678;12.280;2023-08-08T07:21:55;97413.09;;;13.59
79756;BMP280;69239;50.678;12.280;2023-08-08T07:24:21;97404.91;;;13.64
79756;BMP280;69239;50.678;12.280;2023-08-08T07:26:46;97417.25;;;13.72
79756;BMP280;69239;50.678;12.280;2023-08-08T07:29:12;97417.03;;;13.77
79756;BMP280;69239;50.678;12.280;2023-08-08T07:31:37;97415.69;;;13.83
79756;BMP280;69239;50.678;12.280;2023-08-08T07:34:02;97420.09;;;13.91
79756;BMP280;69239;50.678;12.280;2023-08-08T07:36:28;97421.41;;;13.97
79756;BMP280;69239;50.678;12.280;2023-08-08T07:38:53;97419.31;;;14.03
79756;BMP280;69239;50.678;12.280;2023-08-08T07:41:25;97421.41;;;14.09
79756;BMP280;69239;50.678;12.280;2023-08-08T07:43:51;97417.44;;;14.15
79756;BMP280;69239;50.678;12.280;2023-08-08T07:46:16;97406.56;;;14.20
79756;BMP280;69239;50.678;12.280;2023-08-08T07:48:42;97407.66;;;14.32
79756;BMP280;69239;50.678;12.280;2023-08-08T07:51:07;97408.75;;;14.43
79756;BMP280;69239;50.678;12.280;2023-08-08T07:53:32;97411.50;;;14.62
79756;BMP280;69239;50.678;12.280;2023-08-08T07:55:58;97415.41;;;14.80
79756;BMP280;69239;50.678;12.280;2023-08-08T07:58:23;97421.59;;;15.00
79756;BMP280;69239;50.678;12.280;2023-08-08T08:00:51;97419.13;;;15.23
79756;BMP280;69239;50.678;12.280;2023-08-08T08:03:18;97410.38;;;15.38
79756;BMP280;69239;50.678;12.280;2023-08-08T08:05:44;97414.00;;;15.65
79756;BMP280;69239;50.678;12.280;2023-08-08T08:08:09;97407.53;;;15.82
79756;BMP280;69239;50.678;12.280;2023-08-08T08:10:34;97410.50;;;15.96
79756;BMP280;69239;50.678;12.280;2023-08-08T08:13:00;97411.28;;;16.16
79756;BMP280;69239;50.678;12.280;2023-08-08T08:15:26;97409.81;;;16.38
79756;BMP280;69239;50.678;12.280;2023-08-08T08:17:51;97388.25;;;16.62
79756;BMP280;69239;50.678;12.280;2023-08-08T08:20:17;97392.22;;;16.94
79756;BMP280;69239;50.678;12.280;2023-08-08T08:22:42;97393.03;;;17.21
79756;BMP280;69239;50.678;12.280;2023-08-08T08:25:08;97385.53;;;17.57
79756;BMP280;69239;50.678;12.280;2023-08-08T08:27:37;97384.25;;;17.74
79756;BMP280;69239;50.678;12.280;2023-08-08T08:30:06;97384.59;;;18.02
79756;BMP280;69239;50.678;12.280;2023-08-08T08:32:34;97372.47;;;18.08
79756;BMP280;69239;50.678;12.280;2023-08-08T08:35:03;97384.84;;;18.23
79756;BMP280;69239;50.678;12.280;2023-08-08T08:37:30;97366.44;;;18.15
79756;BMP280;69239;50.678;12.280;2023-08-08T08:39:55;97387.88;;;18.22
79756;BMP280;69239;50.678;12.280;2023-08-08T08:42:22;97383.28;;;18.22
79756;BMP280;69239;50.678;12.280;2023-08-08T08:44:47;97377.16;;;18.18
79756;BMP280;69239;50.678;12.280;2023-08-08T08:47:14;97367.16;;;18.49
79756;BMP280;69239;50.678;12.280;2023-08-08T08:49:44;97381.50;;;18.74
79756;BMP280;69239;50.678;12.280;2023-08-08T08:52:11;97372.72;;;18.77
79756;BMP280;69239;50.678;12.280;2023-08-08T08:54:36;97354.88;;;18.81
79756;BMP280;69239;50.678;12.280;2023-08-08T08:57:02;97357.63;;;18.95
79756;BMP280;69239;50.678;12.280;2023-08-08T08:59:27;97360.41;;;19.10
79756;BMP280;69239;50.678;12.280;2023-08-08T09:01:53;97362.72;;;19.08
79756;BMP280;69239;50.678;12.280;2023-08-08T09:04:20;97357.31;;;19.00
79756;BMP280;69239;50.678;12.280;2023-08-08T09:06:47;97356.91;;;18.98
79756;BMP280;69239;50.678;12.280;2023-08-08T09:09:13;97357.59;;;18.88
79756;BMP280;69239;50.678;12.280;2023-08-08T09:11:47;97358.69;;;18.80
79756;BMP280;69239;50.678;12.280;2023-08-08T09:14:17;97357.03;;;18.65
79756;BMP280;69239;50.678;12.280;2023-08-08T09:16:45;97351.22;;;18.56
79756;BMP280;69239;50.678;12.280;2023-08-08T09:19:11;97356.84;;;18.44
79756;BMP280;69239;50.678;12.280;2023-08-08T09:21:36;97356.78;;;18.37
79756;BMP280;69239;50.678;12.280;2023-08-08T09:24:02;97365.47;;;18.30
79756;BMP280;69239;50.678;12.280;2023-08-08T09:26:28;97354.31;;;18.17
79756;BMP280;69239;50.678;12.280;2023-08-08T09:28:54;97354.22;;;18.10
79756;BMP280;69239;50.678;12.280;2023-08-08T09:31:19;97361.88;;;18.15
79756;BMP280;69239;50.678;12.280;2023-08-08T09:33:45;97348.56;;;18.15
79756;BMP280;69239;50.678;12.280;2023-08-08T09:36:16;97353.56;;;18.20
79756;BMP280;69239;50.678;12.280;2023-08-08T09:38:42;97355.88;;;18.22
79756;BMP280;69239;50.678;12.280;2023-08-08T09:41:07;97348.22;;;18.20
79756;BMP280;69239;50.678;12.280;2023-08-08T09:43:33;97348.34;;;18.31
79756;BMP280;69239;50.678;12.280;2023-08-08T09:45:58;97352.22;;;18.41
79756;BMP280;69239;50.678;12.280;2023-08-08T09:48:29;97335.56;;;18.47
79756;BMP280;69239;50.678;12.280;2023-08-08T09:50:58;97344.09;;;18.67
79756;BMP280;69239;50.678;12.280;2023-08-08T09:53:25;97336.25;;;18.88
79756;BMP280;69239;50.678;12.280;2023-08-08T09:55:53;97341.34;;;19.08
79756;BMP280;69239;50.678;12.280;2023-08-08T09:58:19;97336.16;;;19.36
79756;BMP280;69239;50.678;12.280;2023-08-08T10:00:45;97323.72;;;19.75
79756;BMP280;69239;50.678;12.280;2023-08-08T10:03:10;97330.28;;;20.13
79756;BMP280;69239;50.678;12.280;2023-08-08T10:05:36;97313.53;;;20.56
79756;BMP280;69239;50.678;12.280;2023-08-08T10:08:02;97313.44;;;20.98
79756;BMP280;69239;50.678;12.280;2023-08-08T10:10:28;97310.34;;;21.14
79756;BMP280;69239;50.678;12.280;2023-08-08T10:12:55;97304.25;;;21.13
79756;BMP280;69239;50.678;12.280;2023-08-08T10:15:25;97317.19;;;21.33
79756;BMP280;69239;50.678;12.280;2023-08-08T10:17:53;97323.94;;;21.55
79756;BMP280;69239;50.678;12.280;2023-08-08T10:20:18;97309.63;;;21.86
79756;BMP280;69239;50.678;12.280;2023-08-08T10:22:45;97314.50;;;21.98
79756;BMP280;69239;50.678;12.280;2023-08-08T10:25:19;97310.78;;;21.85
79756;BMP280;69239;50.678;12.280;2023-08-08T10:27:45;97311.56;;;21.79
79756;BMP280;69239;50.678;12.280;2023-08-08T10:30:10;97309.34;;;21.70
79756;BMP280;69239;50.678;12.280;2023-08-08T10:32:44;97326.91;;;21.71
79756;BMP280;69239;50.678;12.280;2023-08-08T10:35:12;97297.09;;;21.73
79756;BMP280;69239;50.678;12.280;2023-08-08T10:37:38;97300.53;;;21.73
79756;BMP280;69239;50.678;12.280;2023-08-08T10:40:04;97291.34;;;21.74
79756;BMP280;69239;50.678;12.280;2023-08-08T10:42:44;97285.56;;;21.76
79756;BMP280;69239;50.678;12.280;2023-08-08T10:45:14;97298.56;;;21.77
79756;BMP280;69239;50.678;12.280;2023-08-08T10:47:40;97282.44;;;21.84
79756;BMP280;69239;50.678;12.280;2023-08-08T10:50:08;97281.63;;;21.94
79756;BMP280;69239;50.678;12.280;2023-08-08T10:55:33;97285.25;;;22.18
79756;BMP280;69239;50.678;12.280;2023-08-08T11:00:31;97281.28;;;22.33
79756;BMP280;69239;50.678;12.280;2023-08-08T11:02:58;97288.09;;;22.45
79756;BMP280;69239;50.678;12.280;2023-08-08T11:05:25;97272.66;;;22.56
79756;BMP280;69239;50.678;12.280;2023-08-08T11:07:51;97274.50;;;22.63
79756;BMP280;69239;50.678;12.280;2023-08-08T11:10:17;97264.09;;;22.68
79756;BMP280;69239;50.678;12.280;2023-08-08T11:12:53;97266.53;;;22.90
79756;BMP280;69239;50.678;12.280;2023-08-08T11:15:18;97265.19;;;23.08
79756;BMP280;69239;50.678;12.280;2023-08-08T11:17:44;97271.75;;;23.34
79756;BMP280;69239;50.678;12.280;2023-08-08T11:20:10;97267.09;;;23.38
79756;BMP280;69239;50.678;12.280;2023-08-08T11:22:36;97279.44;;;23.32
79756;BMP280;69239;50.678;12.280;2023-08-08T11:25:01;97275.69;;;23.26
79756;BMP280;69239;50.678;12.280;2023-08-08T11:27:28;97260.56;;;23.09
79756;BMP280;69239;50.678;12.280;2023-08-08T11:29:56;97260.72;;;22.95
79756;BMP280;69239;50.678;12.280;2023-08-08T11:32:21;97265.53;;;22.76
79756;BMP280;69239;50.678;12.280;2023-08-08T11:34:47;97267.59;;;22.65
79756;BMP280;69239;50.678;12.280;2023-08-08T11:37:12;97269.19;;;22.59
79756;BMP280;69239;50.678;12.280;2023-08-08T11:39:40;97271.94;;;22.52
79756;BMP280;69239;50.678;12.280;2023-08-08T11:42:06;97267.28;;;22.56
79756;BMP280;69239;50.678;12.280;2023-08-08T11:44:32;97257.44;;;22.80
79756;BMP280;69239;50.678;12.280;2023-08-08T11:47:01;97272.63;;;23.24
79756;BMP280;69239;50.678;12.280;2023-08-08T11:49:27;97245.75;;;23.28
79756;BMP280;69239;50.678;12.280;2023-08-08T11:51:54;97245.88;;;23.17
79756;BMP280;69239;50.678;12.280;2023-08-08T11:54:26;97248.34;;;23.04
79756;BMP280;69239;50.678;12.280;2023-08-08T11:56:52;97238.81;;;23.00
79756;BMP280;69239;50.678;12.280;2023-08-08T11:59:19;97244.13;;;23.03
79756;BMP280;69239;50.678;12.280;2023-08-08T12:01:44;97249.09;;;23.05
79756;BMP280;69239;50.678;12.280;2023-08-08T12:04:10;97237.50;;;23.11
79756;BMP280;69239;50.678;12.280;2023-08-08T12:06:38;97231.34;;;23.14
79756;BMP280;69239;50.678;12.280;2023-08-08T12:09:13;97232.63;;;23.03
79756;BMP280;69239;50.678;12.280;2023-08-08T12:11:39;97236.13;;;23.00
79756;BMP280;69239;50.678;12.280;2023-08-08T12:14:07;97229.22;;;22.99
79756;BMP280;69239;50.678;12.280;2023-08-08T12:16:33;97235.41;;;22.96
79756;BMP280;69239;50.678;12.280;2023-08-08T12:19:03;97242.38;;;22.90
79756;BMP280;69239;50.678;12.280;2023-08-08T12:21:29;97243.25;;;22.80
79756;BMP280;69239;50.678;12.280;2023-08-08T12:23:54;97248.56;;;22.83
79756;BMP280;69239;50.678;12.280;2023-08-08T12:26:20;97239.63;;;22.97
79756;BMP280;69239;50.678;12.280;2023-08-08T12:28:45;97235.19;;;23.13
79756;BMP280;69239;50.678;12.280;2023-08-08T12:31:11;97235.03;;;23.24
79756;BMP280;69239;50.678;12.280;2023-08-08T12:33:36;97231.28;;;23.18
79756;BMP280;69239;50.678;12.280;2023-08-08T12:36:01;97237.56;;;23.08
79756;BMP280;69239;50.678;12.280;2023-08-08T12:38:27;97235.22;;;23.10
79756;BMP280;69239;50.678;12.280;2023-08-08T12:40:52;97235.84;;;23.21
79756;BMP280;69239;50.678;12.280;2023-08-08T12:43:17;97234.94;;;23.31
79756;BMP280;69239;50.678;12.280;2023-08-08T12:45:45;97227.31;;;23.26
79756;BMP280;69239;50.678;12.280;2023-08-08T12:48:12;97233.16;;;23.21
79756;BMP280;69239;50.678;12.280;2023-08-08T12:50:37;97228.75;;;23.07
79756;BMP280;69239;50.678;12.280;2023-08-08T12:53:03;97244.22;;;22.96
79756;BMP280;69239;50.678;12.280;2023-08-08T12:55:30;97243.25;;;22.80
79756;BMP280;69239;50.678;12.280;2023-08-08T12:57:55;97249.50;;;22.69
79756;BMP280;69239;50.678;12.280;2023-08-08T13:00:20;97247.34;;;22.57
79756;BMP280;69239;50.678;12.280;2023-08-08T13:02:47;97251.25;;;22.49
79756;BMP280;69239;50.678;12.280;2023-08-08T13:05:12;97248.69;;;22.35
79756;BMP280;69239;50.678;12.280;2023-08-08T13:07:38;97241.47;;;22.32
79756;BMP280;69239;50.678;12.280;2023-08-08T13:10:03;97239.94;;;22.31
79756;BMP280;69239;50.678;12.280;2023-08-08T13:12:30;97237.69;;;22.29
79756;BMP280;69239;50.678;12.280;2023-08-08T13:14:55;97243.84;;;22.23
79756;BMP280;69239;50.678;12.280;2023-08-08T13:17:21;97255.44;;;22.13
79756;BMP280;69239;50.678;12.280;2023-08-08T13:19:46;97254.31;;;22.07
79756;BMP280;69239;50.678;12.280;2023-08-08T13:22:11;97240.94;;;22.03
79756;BMP280;69239;50.678;12.280;2023-08-08T13:24:37;97249.28;;;22.16
79756;BMP280;69239;50.678;12.280;2023-08-08T13:27:03;97240.78;;;22.24
79756;BMP280;69239;50.678;12.280;2023-08-08T13:29:28;97243.03;;;22.26
79756;BMP280;69239;50.678;12.280;2023-08-08T13:31:54;97250.34;;;22.29
79756;BMP280;69239;50.678;12.280;2023-08-08T13:34:19;97250.69;;;22.31
79756;BMP280;69239;50.678;12.280;2023-08-08T13:36:44;97257.63;;;22.28
79756;BMP280;69239;50.678;12.280;2023-08-08T13:39:10;97259.19;;;22.22
79756;BMP280;69239;50.678;12.280;2023-08-08T13:41:35;97258.47;;;22.15
79756;BMP280;69239;50.678;12.280;2023-08-08T13:44:01;97259.66;;;22.07
79756;BMP280;69239;50.678;12.280;2023-08-08T13:46:26;97262.81;;;22.02
79756;BMP280;69239;50.678;12.280;2023-08-08T13:48:51;97262.41;;;22.03
79756;BMP280;69239;50.678;12.280;2023-08-08T13:51:17;97254.72;;;22.05
79756;BMP280;69239;50.678;12.280;2023-08-08T13:53:43;97258.53;;;22.08
79756;BMP280;69239;50.678;12.280;2023-08-08T13:56:10;97263.19;;;22.00